KFFZ

Falcon Field Airport

Mesa, Arizona, USA
METAR KFFZ 151854Z 17006KT 10SM FEW036 FEW048 18/09 A3000 RMK AO2 SLP145 T01780089
Observed Flight Rules
Feb-15 @ 18:54 UTC (51 minutes ago) Visual Flight Rules
Wind Visibility Clouds
170° at 6 knots 10 miles
  • Few at 3,600' AGL
  • Few at 4,800' AGL
Temperatures Readings
Current 18°C / 64°F
Dewpoint 9°C / 48°F
Humidity 56%
Altimeter 30" Hg
Pressure 1014.5 hPa
Elevation 424
METAR KFFZ 151854Z 17006KT 10SM FEW036 FEW048 18/09 A3000 RMK AO2 SLP145 T01780089
Observed Flight Rules
Feb-15 @ 18:54 UTC
(51 minutes ago)
VFR
Wind Visibility
170° at 6 knots 10 miles
Clouds
  • Few at 3,600' AGL
  • Few at 4,800' AGL
Temperature Dewpoint
18°C / 64°F 9°C / 48°F
Humidity Altimeter Pressure
56% 30" Hg 1014.5 hPa